createdAt,value
2023-04-04T00:01:17.182Z,101321.94
2023-04-04T00:06:19.695Z,101322.84
2023-04-04T00:11:22.053Z,101311.63
2023-04-04T00:16:23.405Z,101317.03
2023-04-04T00:21:27.339Z,101304.75
2023-04-04T00:26:28.774Z,101309.34
2023-04-04T00:31:30.227Z,101311.06
2023-04-04T00:36:31.669Z,101298.09
2023-04-04T00:41:33.149Z,101296.53
2023-04-04T00:46:34.563Z,101294.78
2023-04-04T00:51:36.369Z,101292.34
2023-04-04T00:56:39.649Z,101293.31
2023-04-04T01:01:41.580Z,101296.84
2023-04-04T01:06:43.912Z,101286.41
2023-04-04T01:11:45.581Z,101275.94
2023-04-04T01:16:49.555Z,101288.16
2023-04-04T01:21:53.607Z,101280.72
2023-04-04T01:26:55.031Z,101278.97
2023-04-04T01:32:12.784Z,101285.28
2023-04-04T01:37:35.064Z,101278.53
2023-04-04T01:42:37.948Z,101289.09
2023-04-04T01:47:41.085Z,101268.13
2023-04-04T01:52:43.098Z,101280.34
2023-04-04T01:57:44.576Z,101280.53
2023-04-04T02:02:45.971Z,101276.97
2023-04-04T02:07:49.627Z,101284.03
2023-04-04T02:12:53.243Z,101277.44
2023-04-04T02:17:54.661Z,101275.47
2023-04-04T02:22:57.249Z,101281.03
2023-04-04T02:27:58.663Z,101280.91
2023-04-04T02:33:00.250Z,101274.03
2023-04-04T02:38:01.948Z,101265.56
2023-04-04T02:43:04.027Z,101261.94
2023-04-04T02:48:07.485Z,101262.81
2023-04-04T02:53:08.916Z,101243.22
2023-04-04T02:58:10.319Z,101258.69
2023-04-04T03:03:11.751Z,101239.56
2023-04-04T03:08:13.205Z,101247.59
2023-04-04T03:13:14.640Z,101237.94
2023-04-04T03:18:16.469Z,101239.88
2023-04-04T03:23:17.812Z,101234.72
2023-04-04T03:28:19.129Z,101240.97
2023-04-04T03:33:21.709Z,101226.13
2023-04-04T03:38:23.308Z,101227.75
2023-04-04T03:43:24.591Z,101221.78
2023-04-04T03:48:25.937Z,101215.72
2023-04-04T03:53:28.713Z,101220.97
2023-04-04T03:58:30.838Z,101221.19
2023-04-04T04:03:32.344Z,101216.03
2023-04-04T04:08:33.776Z,101222.38
2023-04-04T04:13:38.163Z,101219.69
2023-04-04T04:18:40.144Z,101218.78
2023-04-04T04:23:41.447Z,101216.25
2023-04-04T04:28:42.857Z,101208.38
2023-04-04T04:33:44.161Z,101221.63
2023-04-04T04:38:45.514Z,101223.38
2023-04-04T04:43:46.844Z,101219.13
2023-04-04T04:48:48.500Z,101218.41
2023-04-04T04:53:49.974Z,101220.88
2023-04-04T04:58:51.355Z,101218.28
2023-04-04T05:03:53.566Z,101229.59
2023-04-04T05:08:55.616Z,101231.28
2023-04-04T05:13:57.274Z,101224.09
2023-04-04T05:18:58.645Z,101227.69
2023-04-04T05:23:59.986Z,101229.47
2023-04-04T05:29:01.428Z,101224.09
2023-04-04T05:34:08.163Z,101226.78
2023-04-04T05:39:09.585Z,101235.47
2023-04-04T05:44:11.464Z,101237.09
2023-04-04T05:49:12.849Z,101238.56
2023-04-04T05:54:14.212Z,101238.50
2023-04-04T05:59:16.515Z,101237.41
2023-04-04T06:04:18.213Z,101242.44
2023-04-04T06:09:19.566Z,101241.97
2023-04-04T06:14:20.874Z,101242.19
2023-04-04T06:19:22.296Z,101250.59
2023-04-04T06:24:24.273Z,101244.97
2023-04-04T06:29:26.218Z,101242.56
2023-04-04T06:34:27.886Z,101251.41
2023-04-04T06:39:31.418Z,101243.31
2023-04-04T06:44:32.836Z,101254.72
2023-04-04T06:49:34.266Z,101257.66
2023-04-04T06:54:35.913Z,101256.75
2023-04-04T06:59:37.291Z,101250.44
2023-04-04T07:04:39.866Z,101260.94
2023-04-04T07:09:41.385Z,101258.50
2023-04-04T07:14:42.741Z,101268.66
2023-04-04T07:19:44.043Z,101266.63
2023-04-04T07:24:45.686Z,101273.94
2023-04-04T07:29:47.417Z,101273.56
2023-04-04T07:34:49.541Z,101270.44
2023-04-04T07:39:51.108Z,101275.72
2023-04-04T07:44:52.666Z,101278.44
2023-04-04T07:49:53.994Z,101264.34
2023-04-04T07:54:55.672Z,101265.53
2023-04-04T07:59:57.020Z,101250.66
2023-04-04T08:04:58.333Z,101259.44
2023-04-04T08:09:59.780Z,101248.03
2023-04-04T08:15:02.138Z,101249.19
2023-04-04T08:20:04.538Z,101247.78
2023-04-04T08:25:06.217Z,101244.50
2023-04-04T08:30:09.273Z,101246.06
2023-04-04T08:35:11.723Z,101246.88
2023-04-04T08:40:13.567Z,101241.03
2023-04-04T08:45:17.837Z,101240.81
2023-04-04T08:50:21.569Z,101243.16
2023-04-04T08:55:23.205Z,101237.56
2023-04-04T09:00:25.130Z,101231.91
2023-04-04T09:05:27.291Z,101225.03
2023-04-04T09:10:29.760Z,101227.03
2023-04-04T09:15:32.739Z,101217.78
2023-04-04T09:20:39.231Z,101225.09
2023-04-04T09:26:02.593Z,101231.59
2023-04-04T09:31:09.929Z,101220.09
2023-04-04T09:36:12.902Z,101215.56
2023-04-04T09:41:16.510Z,101214.31
2023-04-04T09:46:21.479Z,101203.31
2023-04-04T09:51:22.939Z,101198.44
2023-04-04T09:56:24.260Z,101208.47
2023-04-04T10:01:25.942Z,101205.47
2023-04-04T10:06:27.800Z,101207.00
2023-04-04T10:11:35.038Z,101201.59
2023-04-04T10:16:38.356Z,101198.53
2023-04-04T10:21:40.724Z,101202.94
2023-04-04T10:26:42.160Z,101190.63
2023-04-04T10:31:47.614Z,101187.59
2023-04-04T10:36:58.378Z,101203.44
2023-04-04T10:42:02.102Z,101188.34
2023-04-04T10:47:14.474Z,101197.94
2023-04-04T10:52:18.668Z,101198.03
2023-04-04T10:57:20.232Z,101181.63
2023-04-04T11:02:45.022Z,101186.84
2023-04-04T11:07:57.199Z,101174.31
2023-04-04T11:13:13.704Z,101160.97
2023-04-04T11:18:31.602Z,101145.47
2023-04-04T11:23:49.783Z,101147.50
2023-04-04T11:28:51.288Z,101144.09
2023-04-04T11:34:06.337Z,101135.44
2023-04-04T11:39:30.188Z,101133.47
2023-04-04T11:44:33.480Z,101125.03
2023-04-04T11:49:37.596Z,101103.19
2023-04-04T11:54:40.857Z,101098.56
2023-04-04T11:59:45.357Z,101096.16
2023-04-04T12:04:47.579Z,101093.59
2023-04-04T12:09:49.030Z,101085.44
2023-04-04T12:14:50.393Z,101086.63
2023-04-04T12:19:52.518Z,101092.47
2023-04-04T12:24:53.952Z,101083.91
2023-04-04T12:29:56.481Z,101067.22
2023-04-04T12:35:02.333Z,101064.41
2023-04-04T12:40:04.925Z,101057.53
2023-04-04T12:45:07.167Z,101063.31
2023-04-04T12:50:09.070Z,101046.19
2023-04-04T12:55:10.848Z,101051.81
2023-04-04T13:00:13.892Z,101051.53
2023-04-04T13:05:16.586Z,101041.84
2023-04-04T13:10:20.347Z,101049.09
2023-04-04T13:15:21.891Z,101035.84
2023-04-04T13:20:25.681Z,101034.41
2023-04-04T13:25:27.157Z,101019.72
2023-04-04T13:30:29.051Z,101005.66
2023-04-04T13:35:31.634Z,101018.00
2023-04-04T13:40:32.976Z,101011.59
2023-04-04T13:45:36.261Z,101005.97
2023-04-04T13:50:40.373Z,100992.88
2023-04-04T13:55:52.064Z,100992.88
2023-04-04T14:01:06.861Z,100976.88
2023-04-04T14:06:10.728Z,100979.34
2023-04-04T14:11:13.236Z,100970.53
2023-04-04T14:16:14.769Z,100960.72
2023-04-04T14:21:16.241Z,100954.59
2023-04-04T14:26:17.609Z,100949.84
2023-04-04T14:31:20.084Z,100957.47
2023-04-04T14:36:21.674Z,100946.63
2023-04-04T14:41:23.040Z,100951.91
2023-04-04T14:46:25.870Z,100945.34
2023-04-04T14:51:27.638Z,100947.69
2023-04-04T14:56:29.052Z,100926.94
2023-04-04T15:01:30.542Z,100929.72
2023-04-04T15:06:37.916Z,100930.16
2023-04-04T15:11:40.323Z,100929.63
2023-04-04T15:16:41.689Z,100924.13
2023-04-04T15:21:43.110Z,100917.53
2023-04-04T15:26:44.474Z,100928.97
2023-04-04T15:31:46.809Z,100916.44
2023-04-04T15:36:49.941Z,100917.06
2023-04-04T15:41:51.583Z,100909.31
2023-04-04T15:46:53.022Z,100907.63
2023-04-04T15:51:54.487Z,100905.69
2023-04-04T15:56:56.639Z,100894.53
2023-04-04T16:01:57.963Z,100898.16
2023-04-04T16:06:59.364Z,100891.03
2023-04-04T16:12:02.207Z,100892.94
2023-04-04T16:17:03.767Z,100895.03
2023-04-04T16:22:06.234Z,100895.75
2023-04-04T16:27:07.695Z,100887.00
2023-04-04T16:32:08.989Z,100886.38
2023-04-04T16:37:11.973Z,100884.31
2023-04-04T16:42:13.616Z,100882.38
2023-04-04T16:47:14.954Z,100878.97
2023-04-04T16:52:16.278Z,100886.97
2023-04-04T16:57:17.683Z,100864.84
2023-04-04T17:02:19.063Z,100870.38
2023-04-04T17:07:21.045Z,100874.94
2023-04-04T17:12:22.342Z,100873.47
2023-04-04T17:17:23.766Z,100876.31
2023-04-04T17:22:25.495Z,100881.44
2023-04-04T17:27:26.885Z,100870.19
2023-04-04T17:32:28.387Z,100877.94
2023-04-04T17:37:30.873Z,100886.00
2023-04-04T17:42:32.457Z,100882.38
2023-04-04T17:47:33.863Z,100885.16
2023-04-04T17:52:35.178Z,100885.16
2023-04-04T17:57:37.323Z,100884.88
2023-04-04T18:02:38.735Z,100900.63
2023-04-04T18:07:40.415Z,100877.97
2023-04-04T18:12:42.506Z,100900.59
2023-04-04T18:17:44.410Z,100901.56
2023-04-04T18:22:46.347Z,100902.16
2023-04-04T18:27:47.698Z,100896.59
2023-04-04T18:32:50.560Z,100911.25
2023-04-04T18:37:52.355Z,100912.53
2023-04-04T18:42:53.777Z,100918.25
2023-04-04T18:47:55.198Z,100919.34
2023-04-04T18:52:56.750Z,100918.81
2023-04-04T18:57:58.128Z,100929.16
2023-04-04T19:02:59.605Z,100940.28
2023-04-04T19:08:01.400Z,100933.56
2023-04-04T19:13:02.876Z,100937.38
2023-04-04T19:18:05.225Z,100936.28
2023-04-04T19:23:06.760Z,100928.97
2023-04-04T19:28:09.745Z,100939.91
2023-04-04T19:33:12.978Z,100933.06
2023-04-04T19:38:20.754Z,100915.16
2023-04-04T19:43:22.798Z,100927.75
2023-04-04T19:48:50.561Z,100925.56
2023-04-04T19:53:54.299Z,100903.47
2023-04-04T19:59:02.038Z,100928.22
2023-04-04T20:04:05.978Z,100933.31
2023-04-04T20:09:34.941Z,100932.88
2023-04-04T20:14:36.474Z,100921.06
2023-04-04T20:19:38.074Z,100929.13
2023-04-04T20:24:41.508Z,100920.84
2023-04-04T20:29:43.692Z,100937.28
2023-04-04T20:34:45.937Z,100914.91
2023-04-04T20:40:20.549Z,100927.25
2023-04-04T20:45:41.141Z,100929.66
2023-04-04T20:50:44.839Z,100922.50
2023-04-04T20:55:46.446Z,100943.63
2023-04-04T21:00:48.382Z,100937.38
2023-04-04T21:05:49.872Z,100942.69
2023-04-04T21:10:53.820Z,100929.00
2023-04-04T21:15:59.909Z,100920.31
2023-04-04T21:21:13.180Z,100931.22
2023-04-04T21:26:32.710Z,100938.88
2023-04-04T21:31:37.132Z,100936.41
2023-04-04T21:36:38.915Z,100945.16
2023-04-04T21:41:41.256Z,100944.38
2023-04-04T21:46:42.905Z,100939.16
2023-04-04T21:51:44.379Z,100937.38
2023-04-04T21:56:46.713Z,100932.25
2023-04-04T22:01:49.980Z,100925.00
2023-04-04T22:06:51.364Z,100938.75
2023-04-04T22:11:53.839Z,100934.00
2023-04-04T22:16:58.624Z,100942.78
2023-04-04T22:22:00.441Z,100947.31
2023-04-04T22:27:03.834Z,100940.66
2023-04-04T22:32:05.398Z,100933.63
2023-04-04T22:37:06.795Z,100926.88
2023-04-04T22:42:08.148Z,100934.84
2023-04-04T22:47:09.565Z,100923.56
2023-04-04T22:52:13.079Z,100925.38
2023-04-04T22:57:14.434Z,100920.34
2023-04-04T23:02:15.936Z,100915.34
2023-04-04T23:07:17.279Z,100927.00
2023-04-04T23:12:18.604Z,100921.44
2023-04-04T23:17:19.984Z,100919.78
2023-04-04T23:22:21.446Z,100913.91
2023-04-04T23:27:22.927Z,100922.19
2023-04-04T23:32:24.418Z,100919.72
2023-04-04T23:37:26.072Z,100916.63
2023-04-04T23:42:27.448Z,100912.13
2023-04-04T23:47:28.834Z,100905.59
2023-04-04T23:52:30.323Z,100905.78
2023-04-04T23:57:31.706Z,100895.34
